createdAt,value
2023-03-30T00:00:57.390Z,1.70
2023-03-30T00:03:27.119Z,1.70
2023-03-30T00:05:57.827Z,1.55
2023-03-30T00:08:28.814Z,1.75
2023-03-30T00:11:11.998Z,1.35
2023-03-30T00:13:39.388Z,1.92
2023-03-30T00:16:08.077Z,1.70
2023-03-30T00:18:34.826Z,1.73
2023-03-30T00:21:04.536Z,1.70
2023-03-30T00:23:32.400Z,1.75
2023-03-30T00:26:00.669Z,1.75
2023-03-30T00:28:30.574Z,1.80
2023-03-30T00:30:58.421Z,1.85
2023-03-30T00:33:37.134Z,1.60
2023-03-30T00:36:11.375Z,1.98
2023-03-30T00:38:38.099Z,2.20
2023-03-30T00:41:05.534Z,1.73
2023-03-30T00:43:33.594Z,1.70
2023-03-30T00:46:00.507Z,1.30
2023-03-30T00:48:32.825Z,1.98
2023-03-30T00:51:03.897Z,1.67
2023-03-30T00:53:37.499Z,2.17
2023-03-30T00:56:07.240Z,1.67
2023-03-30T00:58:36.009Z,1.95
2023-03-30T01:01:05.911Z,2.03
2023-03-30T01:04:03.613Z,1.73
2023-03-30T01:06:31.565Z,1.60
2023-03-30T01:08:58.997Z,1.25
2023-03-30T01:11:29.415Z,1.33
2023-03-30T01:14:22.838Z,1.50
2023-03-30T01:17:21.683Z,1.65
2023-03-30T01:20:19.589Z,1.48
2023-03-30T01:22:55.281Z,1.90
2023-03-30T01:25:47.300Z,2.17
2023-03-30T01:28:37.026Z,1.80
2023-03-30T01:31:15.854Z,2.00
2023-03-30T01:34:20.199Z,1.70
2023-03-30T01:37:07.467Z,2.20
2023-03-30T01:39:54.146Z,1.70
2023-03-30T01:42:46.855Z,1.50
2023-03-30T01:45:39.160Z,1.80
2023-03-30T01:48:18.861Z,1.67
2023-03-30T01:50:52.764Z,1.60
2023-03-30T01:53:35.711Z,1.70
2023-03-30T01:56:27.196Z,1.25
2023-03-30T01:59:18.101Z,1.25
2023-03-30T02:01:50.152Z,1.67
2023-03-30T02:04:19.900Z,1.80
2023-03-30T02:06:52.081Z,1.40
2023-03-30T02:09:23.769Z,1.50
2023-03-30T02:14:24.507Z,1.30
2023-03-30T02:17:00.362Z,1.25
2023-03-30T02:19:27.927Z,2.42
2023-03-30T02:21:55.012Z,2.03
2023-03-30T02:24:25.573Z,1.90
2023-03-30T02:26:53.646Z,2.13
2023-03-30T02:29:22.760Z,1.88
2023-03-30T02:31:52.985Z,1.90
2023-03-30T02:34:56.416Z,1.67
2023-03-30T02:38:06.606Z,2.13
2023-03-30T02:41:07.155Z,1.67
2023-03-30T02:43:39.112Z,3.55
2023-03-30T02:46:15.141Z,2.63
2023-03-30T02:48:51.147Z,2.00
2023-03-30T02:51:38.495Z,1.75
2023-03-30T02:54:37.512Z,1.75
2023-03-30T02:58:05.398Z,1.80
2023-03-30T03:00:52.112Z,1.70
2023-03-30T03:03:31.623Z,1.73
2023-03-30T03:06:02.618Z,1.92
2023-03-30T03:08:37.726Z,1.30
2023-03-30T03:11:07.394Z,1.48
2023-03-30T03:13:36.855Z,1.90
2023-03-30T03:16:05.035Z,2.00
2023-03-30T03:18:32.521Z,1.80
2023-03-30T03:20:59.429Z,1.98
2023-03-30T03:23:26.577Z,2.70
2023-03-30T03:25:55.995Z,1.80
2023-03-30T03:28:23.060Z,1.92
2023-03-30T03:30:54.169Z,3.30
2023-03-30T03:33:23.884Z,3.85
2023-03-30T03:36:17.043Z,3.35
2023-03-30T03:38:52.139Z,1.75
2023-03-30T03:41:19.122Z,1.88
2023-03-30T03:43:45.946Z,2.00
2023-03-30T03:46:15.136Z,1.95
2023-03-30T03:48:42.163Z,1.75
2023-03-30T03:51:09.806Z,1.40
2023-03-30T03:53:36.767Z,2.10
2023-03-30T03:56:07.453Z,2.30
2023-03-30T03:58:34.511Z,1.48
2023-03-30T04:01:02.275Z,2.28
2023-03-30T04:03:29.319Z,2.50
2023-03-30T04:06:00.126Z,1.98
2023-03-30T04:08:28.457Z,1.33
2023-03-30T04:11:08.612Z,1.85
2023-03-30T04:13:44.510Z,1.90
2023-03-30T04:16:29.761Z,1.98
2023-03-30T04:19:19.516Z,1.67
2023-03-30T04:21:55.615Z,1.63
2023-03-30T04:24:41.817Z,1.83
2023-03-30T04:27:28.705Z,2.22
2023-03-30T04:30:14.016Z,2.30
2023-03-30T04:33:05.393Z,1.73
2023-03-30T04:35:50.882Z,2.13
2023-03-30T04:38:58.609Z,2.47
2023-03-30T04:41:47.455Z,2.10
2023-03-30T04:44:51.120Z,3.15
2023-03-30T04:47:44.744Z,4.88
2023-03-30T04:50:23.764Z,3.10
2023-03-30T04:53:09.553Z,17.05
2023-03-30T04:56:08.264Z,5.95
2023-03-30T04:58:43.912Z,3.90
2023-03-30T05:01:33.805Z,2.20
2023-03-30T05:04:19.225Z,2.30
2023-03-30T05:10:06.606Z,3.38
2023-03-30T05:12:48.567Z,3.60
2023-03-30T05:15:32.343Z,2.05
2023-03-30T05:18:30.521Z,2.63
2023-03-30T05:21:12.183Z,2.22
2023-03-30T05:23:47.904Z,3.55
2023-03-30T05:26:36.331Z,4.78
2023-03-30T05:29:19.996Z,3.83
2023-03-30T05:32:10.004Z,2.55
2023-03-30T05:34:56.650Z,2.67
2023-03-30T05:37:37.999Z,3.10
2023-03-30T05:40:26.059Z,2.30
2023-03-30T05:43:01.866Z,2.45
2023-03-30T05:45:46.109Z,2.28
2023-03-30T05:48:31.530Z,2.35
2023-03-30T05:51:06.779Z,2.50
2023-03-30T05:53:51.384Z,2.88
2023-03-30T05:56:42.258Z,2.40
2023-03-30T05:59:21.260Z,1.70
2023-03-30T06:02:12.716Z,2.10
2023-03-30T06:04:40.159Z,1.90
2023-03-30T06:07:07.891Z,1.77
2023-03-30T06:09:34.674Z,1.70
2023-03-30T06:12:07.498Z,2.13
2023-03-30T06:14:35.016Z,1.60
2023-03-30T06:17:25.969Z,1.98
2023-03-30T06:19:52.798Z,1.45
2023-03-30T06:22:19.747Z,1.70
2023-03-30T06:27:20.580Z,1.63
2023-03-30T06:29:47.312Z,1.65
2023-03-30T06:32:14.252Z,1.88
2023-03-30T06:37:36.598Z,2.10
2023-03-30T06:40:08.335Z,1.98
2023-03-30T06:42:35.354Z,2.33
2023-03-30T06:45:14.663Z,2.35
2023-03-30T06:47:42.315Z,2.60
2023-03-30T06:50:09.796Z,3.80
2023-03-30T06:52:52.313Z,4.00
2023-03-30T06:55:21.808Z,3.30
2023-03-30T06:57:48.610Z,2.83
2023-03-30T07:00:15.639Z,2.45
2023-03-30T07:03:19.019Z,2.30
2023-03-30T07:06:05.100Z,2.45
2023-03-30T07:08:35.745Z,5.90
2023-03-30T07:11:06.917Z,4.15
2023-03-30T07:13:36.460Z,3.58
2023-03-30T07:16:03.371Z,4.15
2023-03-30T07:18:31.979Z,3.40
2023-03-30T07:20:59.497Z,4.13
2023-03-30T07:23:32.484Z,3.50
2023-03-30T07:25:59.280Z,2.92
2023-03-30T07:28:38.151Z,1.90
2023-03-30T07:31:07.234Z,6.47
2023-03-30T07:33:37.057Z,4.75
2023-03-30T07:36:05.845Z,2.47
2023-03-30T07:38:33.542Z,1.85
2023-03-30T07:41:00.913Z,1.90
2023-03-30T07:43:28.513Z,2.13
2023-03-30T07:45:56.820Z,2.88
2023-03-30T07:48:34.746Z,3.15
2023-03-30T07:51:03.407Z,3.40
2023-03-30T07:53:31.682Z,2.05
2023-03-30T07:56:01.161Z,1.67
2023-03-30T07:58:36.955Z,1.83
2023-03-30T08:01:05.092Z,1.73
2023-03-30T08:03:50.822Z,1.98
2023-03-30T08:06:17.741Z,1.77
2023-03-30T08:08:47.711Z,1.70
2023-03-30T08:11:16.166Z,1.60
2023-03-30T08:13:44.380Z,2.13
2023-03-30T08:16:11.968Z,2.28
2023-03-30T08:18:41.300Z,1.95
2023-03-30T08:21:07.985Z,1.98
2023-03-30T08:23:34.660Z,2.45
2023-03-30T08:26:01.586Z,2.60
2023-03-30T08:28:28.306Z,2.28
2023-03-30T08:30:55.300Z,2.30
2023-03-30T08:33:24.016Z,2.47
2023-03-30T08:35:51.301Z,2.08
2023-03-30T08:38:18.940Z,1.98
2023-03-30T08:40:47.719Z,1.80
2023-03-30T08:43:33.570Z,3.38
2023-03-30T08:46:01.878Z,1.92
2023-03-30T08:48:32.474Z,1.70
2023-03-30T08:51:29.170Z,2.10
2023-03-30T08:53:59.146Z,2.38
2023-03-30T08:56:35.688Z,2.30
2023-03-30T08:59:29.406Z,2.28
2023-03-30T09:02:01.976Z,2.60
2023-03-30T09:07:17.096Z,1.67
2023-03-30T09:09:49.418Z,2.10
2023-03-30T09:14:57.071Z,2.60
2023-03-30T09:17:43.036Z,2.13
2023-03-30T09:20:27.532Z,1.55
2023-03-30T09:22:55.811Z,1.30
2023-03-30T09:25:38.684Z,2.20
2023-03-30T09:28:36.463Z,2.40
2023-03-30T09:31:12.163Z,1.52
2023-03-30T09:33:47.070Z,1.80
2023-03-30T09:36:17.213Z,1.98
2023-03-30T09:38:45.447Z,2.00
2023-03-30T09:41:33.395Z,1.75
2023-03-30T09:44:02.083Z,1.80
2023-03-30T09:46:29.286Z,1.95
2023-03-30T09:49:14.074Z,1.60
2023-03-30T09:51:55.125Z,1.50
2023-03-30T09:54:23.135Z,1.90
2023-03-30T09:56:54.049Z,1.90
2023-03-30T09:59:37.862Z,1.50
2023-03-30T10:02:18.921Z,1.85
2023-03-30T10:04:52.513Z,2.33
2023-03-30T10:07:37.967Z,1.98
2023-03-30T10:10:26.788Z,2.25
2023-03-30T10:13:15.467Z,1.83
2023-03-30T10:15:45.965Z,2.53
2023-03-30T10:18:23.795Z,2.00
2023-03-30T10:20:53.069Z,2.05
2023-03-30T10:23:23.054Z,2.72
2023-03-30T10:25:50.827Z,2.53
2023-03-30T10:28:36.360Z,2.05
2023-03-30T10:31:12.836Z,1.88
2023-03-30T10:33:42.742Z,1.92
2023-03-30T10:36:11.329Z,2.15
2023-03-30T10:38:40.701Z,2.72
2023-03-30T10:41:15.008Z,1.83
2023-03-30T10:43:42.368Z,1.75
2023-03-30T10:46:20.337Z,1.70
2023-03-30T10:49:14.747Z,1.90
2023-03-30T10:52:03.145Z,2.15
2023-03-30T10:54:53.348Z,2.28
2023-03-30T10:57:24.151Z,2.05
2023-03-30T11:00:07.389Z,2.10
2023-03-30T11:02:34.070Z,1.67
2023-03-30T11:05:19.743Z,1.95
2023-03-30T11:07:55.292Z,2.45
2023-03-30T11:10:29.413Z,1.90
2023-03-30T11:13:05.770Z,2.75
2023-03-30T11:15:53.258Z,2.28
2023-03-30T11:18:42.694Z,2.13
2023-03-30T11:21:15.047Z,2.10
2023-03-30T11:23:52.939Z,3.10
2023-03-30T11:26:43.380Z,2.83
2023-03-30T11:29:37.574Z,3.08
2023-03-30T11:32:25.919Z,3.22
2023-03-30T11:35:27.033Z,3.40
2023-03-30T11:38:06.649Z,2.70
2023-03-30T11:40:44.714Z,3.35
2023-03-30T11:43:13.307Z,3.22
2023-03-30T11:46:03.765Z,3.75
2023-03-30T11:49:16.328Z,3.75
2023-03-30T11:52:00.966Z,3.10
2023-03-30T11:54:30.936Z,3.13
2023-03-30T11:57:07.268Z,3.17
2023-03-30T12:00:09.264Z,3.50
2023-03-30T12:03:02.487Z,3.50
2023-03-30T12:05:44.047Z,3.47
2023-03-30T12:08:26.751Z,3.88
2023-03-30T12:13:38.399Z,3.38
2023-03-30T12:16:22.569Z,3.33
2023-03-30T12:19:09.538Z,2.78
2023-03-30T12:22:01.689Z,2.75
2023-03-30T12:24:37.601Z,2.67
2023-03-30T12:27:06.909Z,2.78
2023-03-30T12:32:29.146Z,2.33
2023-03-30T12:34:58.120Z,3.30
2023-03-30T12:37:35.483Z,2.53
2023-03-30T12:40:08.988Z,3.25
2023-03-30T12:42:39.576Z,2.67
2023-03-30T12:45:21.469Z,2.47
2023-03-30T12:48:02.088Z,3.77
2023-03-30T12:50:42.211Z,2.75
2023-03-30T12:53:41.664Z,2.65
2023-03-30T12:56:42.562Z,2.65
2023-03-30T12:59:20.225Z,2.50
2023-03-30T13:02:26.718Z,2.20
2023-03-30T13:04:54.096Z,2.63
2023-03-30T13:07:24.430Z,2.63
2023-03-30T13:10:25.297Z,2.70
2023-03-30T13:12:57.322Z,2.00
2023-03-30T13:15:30.457Z,2.70
2023-03-30T13:18:23.302Z,3.08
2023-03-30T13:20:56.216Z,2.40
2023-03-30T13:23:22.884Z,2.72
2023-03-30T13:26:05.316Z,2.45
2023-03-30T13:28:54.807Z,2.72
2023-03-30T13:31:30.590Z,2.83
2023-03-30T13:34:22.208Z,3.72
2023-03-30T13:37:24.103Z,2.83
2023-03-30T13:40:27.325Z,3.03
2023-03-30T13:43:22.662Z,3.67
2023-03-30T13:46:16.843Z,2.92
2023-03-30T13:49:08.178Z,2.90
2023-03-30T13:51:38.143Z,3.05
2023-03-30T13:54:10.794Z,3.28
2023-03-30T13:56:41.193Z,3.10
2023-03-30T13:59:14.137Z,3.67
2023-03-30T14:01:44.487Z,3.28
2023-03-30T14:04:13.625Z,3.67
2023-03-30T14:06:46.998Z,3.22
2023-03-30T14:09:22.638Z,3.45
2023-03-30T14:11:53.001Z,3.75
2023-03-30T14:14:37.018Z,3.25
2023-03-30T14:17:18.627Z,3.25
2023-03-30T14:20:13.963Z,3.33
2023-03-30T14:22:44.420Z,3.65
2023-03-30T14:25:35.287Z,3.20
2023-03-30T14:28:03.821Z,2.92
2023-03-30T14:30:30.738Z,2.92
2023-03-30T14:33:12.384Z,2.90
2023-03-30T14:35:44.168Z,3.00
2023-03-30T14:38:23.950Z,2.97
2023-03-30T14:40:52.098Z,3.20
2023-03-30T14:43:24.917Z,2.92
2023-03-30T14:45:57.718Z,2.80
2023-03-30T14:48:33.418Z,2.92
2023-03-30T14:51:09.540Z,3.45
2023-03-30T14:53:36.557Z,3.35
2023-03-30T14:56:04.639Z,2.83
2023-03-30T14:58:33.462Z,2.80
2023-03-30T15:01:03.691Z,3.30
2023-03-30T15:03:34.807Z,3.20
2023-03-30T15:06:03.740Z,2.92
2023-03-30T15:08:33.626Z,3.05
2023-03-30T15:11:27.594Z,2.85
2023-03-30T15:14:01.549Z,3.67
2023-03-30T15:16:31.290Z,3.75
2023-03-30T15:19:13.739Z,3.80
2023-03-30T15:21:40.712Z,3.55
2023-03-30T15:24:12.251Z,3.55
2023-03-30T15:26:43.603Z,3.83
2023-03-30T15:29:10.958Z,4.38
2023-03-30T15:31:37.915Z,3.67
2023-03-30T15:34:13.822Z,3.85
2023-03-30T15:36:41.073Z,4.30
2023-03-30T15:39:33.443Z,3.20
2023-03-30T15:42:07.128Z,2.97
2023-03-30T15:44:43.312Z,3.33
2023-03-30T15:47:17.310Z,2.65
2023-03-30T15:49:47.660Z,2.58
2023-03-30T15:52:41.756Z,2.97
2023-03-30T15:55:26.893Z,2.58
2023-03-30T15:57:54.008Z,2.83
2023-03-30T16:00:24.452Z,3.85
2023-03-30T16:02:59.905Z,2.92
2023-03-30T16:05:29.626Z,3.15
2023-03-30T16:07:56.886Z,2.85
2023-03-30T16:10:27.180Z,3.28
2023-03-30T16:12:55.717Z,3.20
2023-03-30T16:15:28.081Z,3.40
2023-03-30T16:17:54.906Z,2.97
2023-03-30T16:20:27.050Z,2.63
2023-03-30T16:22:54.264Z,3.00
2023-03-30T16:25:41.748Z,3.22
2023-03-30T16:28:16.213Z,2.88
2023-03-30T16:30:44.979Z,2.92
2023-03-30T16:33:11.697Z,3.30
2023-03-30T16:35:38.590Z,3.10
2023-03-30T16:38:05.569Z,3.20
2023-03-30T16:40:42.846Z,3.05
2023-03-30T16:43:10.105Z,2.83
2023-03-30T16:45:37.094Z,3.28
2023-03-30T16:48:04.400Z,3.30
2023-03-30T16:50:42.887Z,4.22
2023-03-30T16:53:10.429Z,3.10
2023-03-30T16:55:38.715Z,3.15
2023-03-30T16:58:07.350Z,3.42
2023-03-30T17:00:46.029Z,2.97
2023-03-30T17:03:13.483Z,3.30
2023-03-30T17:05:41.023Z,3.38
2023-03-30T17:08:24.817Z,3.08
2023-03-30T17:10:53.877Z,3.17
2023-03-30T17:13:21.100Z,3.72
2023-03-30T17:15:47.998Z,3.78
2023-03-30T17:18:17.102Z,3.40
2023-03-30T17:20:49.473Z,3.58
2023-03-30T17:23:18.835Z,3.67
2023-03-30T17:25:49.022Z,3.28
2023-03-30T17:28:20.052Z,3.58
2023-03-30T17:30:47.714Z,4.00
2023-03-30T17:33:14.370Z,4.18
2023-03-30T17:35:43.025Z,5.18
2023-03-30T17:38:09.961Z,3.80
2023-03-30T17:40:40.410Z,4.03
2023-03-30T17:43:07.926Z,3.90
2023-03-30T17:45:36.028Z,5.57
2023-03-30T17:48:04.893Z,6.15
2023-03-30T17:50:36.925Z,4.47
2023-03-30T17:53:07.203Z,4.90
2023-03-30T17:55:34.294Z,4.53
2023-03-30T17:58:01.003Z,4.10
2023-03-30T18:00:31.205Z,5.00
2023-03-30T18:02:58.377Z,4.38
2023-03-30T18:05:27.328Z,3.78
2023-03-30T18:07:54.378Z,3.70
2023-03-30T18:10:22.584Z,4.20
2023-03-30T18:12:50.307Z,3.58
2023-03-30T18:15:18.923Z,3.72
2023-03-30T18:17:45.699Z,3.92
2023-03-30T18:20:26.497Z,3.50
2023-03-30T18:22:53.219Z,3.80
2023-03-30T18:25:29.704Z,4.10
2023-03-30T18:27:59.415Z,4.20
2023-03-30T18:30:32.581Z,4.05
2023-03-30T18:33:00.025Z,3.95
2023-03-30T18:35:29.516Z,3.80
2023-03-30T18:37:56.692Z,4.07
2023-03-30T18:40:45.370Z,3.90
2023-03-30T18:43:12.827Z,4.93
2023-03-30T18:45:50.073Z,6.05
2023-03-30T18:48:19.769Z,5.47
2023-03-30T18:50:51.077Z,5.40
2023-03-30T18:53:23.157Z,6.03
2023-03-30T18:55:52.127Z,4.97
2023-03-30T18:58:25.402Z,6.18
2023-03-30T19:00:53.317Z,5.75
2023-03-30T19:03:22.056Z,5.63
2023-03-30T19:05:50.705Z,4.40
2023-03-30T19:08:20.553Z,4.82
2023-03-30T19:10:50.317Z,5.22
2023-03-30T19:13:18.822Z,5.28
2023-03-30T19:15:47.103Z,5.03
2023-03-30T19:18:14.986Z,4.43
2023-03-30T19:20:42.042Z,7.43
2023-03-30T19:23:11.788Z,4.60
2023-03-30T19:25:39.346Z,4.15
2023-03-30T19:28:07.263Z,4.03
2023-03-30T19:30:38.337Z,4.50
2023-03-30T19:33:09.829Z,4.55
2023-03-30T19:35:36.777Z,4.53
2023-03-30T19:38:03.542Z,4.07
2023-03-30T19:40:30.266Z,4.00
2023-03-30T19:42:56.959Z,4.07
2023-03-30T19:45:23.939Z,4.03
2023-03-30T19:47:51.552Z,3.60
2023-03-30T19:50:23.121Z,4.38
2023-03-30T19:52:50.930Z,4.10
2023-03-30T19:55:21.482Z,3.90
2023-03-30T19:57:48.130Z,4.60
2023-03-30T20:00:17.161Z,4.50
2023-03-30T20:02:50.074Z,3.80
2023-03-30T20:05:18.313Z,3.95
2023-03-30T20:07:45.832Z,4.25
2023-03-30T20:10:15.755Z,3.63
2023-03-30T20:12:42.820Z,3.92
2023-03-30T20:15:10.074Z,3.67
2023-03-30T20:17:38.218Z,3.40
2023-03-30T20:20:08.709Z,4.28
2023-03-30T20:22:41.816Z,3.30
2023-03-30T20:25:13.889Z,3.88
2023-03-30T20:27:41.410Z,4.18
2023-03-30T20:30:09.077Z,3.88
2023-03-30T20:32:35.935Z,3.53
2023-03-30T20:35:03.812Z,3.88
2023-03-30T20:37:30.518Z,3.85
2023-03-30T20:40:09.473Z,3.97
2023-03-30T20:42:39.854Z,3.75
2023-03-30T20:45:08.070Z,4.25
2023-03-30T20:47:34.970Z,3.92
2023-03-30T20:50:01.744Z,4.10
2023-03-30T20:52:29.143Z,4.10
2023-03-30T20:54:56.337Z,4.25
2023-03-30T20:57:24.243Z,4.13
2023-03-30T20:59:52.907Z,3.70
2023-03-30T21:02:20.434Z,4.20
2023-03-30T21:04:47.249Z,4.00
2023-03-30T21:07:16.185Z,3.92
2023-03-30T21:09:42.990Z,3.95
2023-03-30T21:12:10.033Z,3.67
2023-03-30T21:14:36.821Z,3.88
2023-03-30T21:17:04.170Z,3.72
2023-03-30T21:19:31.106Z,3.90
2023-03-30T21:22:00.134Z,3.70
2023-03-30T21:24:27.013Z,4.13
2023-03-30T21:26:53.686Z,4.05
2023-03-30T21:29:21.930Z,4.43
2023-03-30T21:31:48.722Z,4.57
2023-03-30T21:34:15.748Z,4.45
2023-03-30T21:36:42.665Z,4.13
2023-03-30T21:39:09.426Z,4.28
2023-03-30T21:41:36.265Z,4.10
2023-03-30T21:44:02.925Z,4.50
2023-03-30T21:46:29.826Z,3.97
2023-03-30T21:48:56.641Z,4.18
2023-03-30T21:51:26.986Z,3.97
2023-03-30T21:53:55.099Z,4.70
2023-03-30T21:56:23.706Z,6.22
2023-03-30T21:58:51.327Z,6.47
2023-03-30T22:01:19.516Z,9.93
2023-03-30T22:03:46.662Z,6.88
2023-03-30T22:06:16.018Z,5.53
2023-03-30T22:08:45.029Z,4.80
2023-03-30T22:11:17.037Z,4.70
2023-03-30T22:13:46.127Z,4.68
2023-03-30T22:16:22.421Z,3.90
2023-03-30T22:18:50.197Z,4.68
2023-03-30T22:21:22.338Z,3.97
2023-03-30T22:23:49.392Z,4.00
2023-03-30T22:26:16.332Z,4.47
2023-03-30T22:28:43.522Z,4.47
2023-03-30T22:31:13.747Z,4.13
2023-03-30T22:33:40.577Z,4.25
2023-03-30T22:36:19.721Z,4.10
2023-03-30T22:38:51.161Z,4.13
2023-03-30T22:41:24.283Z,3.75
2023-03-30T22:43:56.578Z,4.50
2023-03-30T22:46:25.944Z,3.65
2023-03-30T22:48:55.408Z,5.03
2023-03-30T22:51:28.689Z,4.70
2023-03-30T22:53:58.122Z,4.13
2023-03-30T22:56:25.927Z,4.05
2023-03-30T22:58:52.727Z,4.10
2023-03-30T23:01:19.536Z,3.55
2023-03-30T23:03:47.511Z,3.88
2023-03-30T23:06:14.307Z,4.10
2023-03-30T23:08:40.999Z,4.22
2023-03-30T23:11:08.213Z,4.30
2023-03-30T23:13:38.220Z,3.65
2023-03-30T23:16:06.355Z,4.10
2023-03-30T23:18:34.522Z,4.10
2023-03-30T23:21:06.012Z,3.40
2023-03-30T23:23:36.983Z,3.58
2023-03-30T23:26:09.855Z,3.90
2023-03-30T23:28:39.311Z,3.90
2023-03-30T23:31:07.688Z,3.88
2023-03-30T23:33:34.452Z,3.92
2023-03-30T23:36:01.336Z,3.97
2023-03-30T23:38:28.071Z,3.72
2023-03-30T23:40:58.500Z,3.22
2023-03-30T23:43:26.031Z,4.07
2023-03-30T23:45:53.066Z,4.28
2023-03-30T23:48:19.815Z,3.58
2023-03-30T23:50:46.517Z,3.78
2023-03-30T23:53:13.378Z,3.63
2023-03-30T23:55:41.237Z,4.18
2023-03-30T23:58:08.009Z,3.55
